sensor_id;sensor_type;location;lat;lon;timestamp;pressure;altitude;pressure_sealevel;temperature;humidity
28428;BME280;15662;49.128;8.520;2023-06-19T00:00:47;99872.31;;;28.96;35.33
28428;BME280;15662;49.128;8.520;2023-06-19T00:03:15;99861.03;;;28.91;35.49
28428;BME280;15662;49.128;8.520;2023-06-19T00:05:43;99859.72;;;28.95;35.21
28428;BME280;15662;49.128;8.520;2023-06-19T00:08:11;99866.16;;;28.94;35.37
28428;BME280;15662;49.128;8.520;2023-06-19T00:10:39;99853.03;;;28.89;35.10
28428;BME280;15662;49.128;8.520;2023-06-19T00:13:07;99866.00;;;28.87;35.30
28428;BME280;15662;49.128;8.520;2023-06-19T00:15:35;99881.88;;;28.92;35.64
28428;BME280;15662;49.128;8.520;2023-06-19T00:18:04;99878.78;;;28.87;35.38
28428;BME280;15662;49.128;8.520;2023-06-19T00:20:32;99886.44;;;28.83;35.29
28428;BME280;15662;49.128;8.520;2023-06-19T00:23:02;99901.59;;;28.86;35.67
28428;BME280;15662;49.128;8.520;2023-06-19T00:25:30;99901.78;;;28.84;35.77
28428;BME280;15662;49.128;8.520;2023-06-19T00:27:59;99889.88;;;28.77;35.55
28428;BME280;15662;49.128;8.520;2023-06-19T00:30:27;99893.44;;;28.77;35.74
28428;BME280;15662;49.128;8.520;2023-06-19T00:33:00;99912.00;;;28.74;35.71
28428;BME280;15662;49.128;8.520;2023-06-19T00:35:30;99913.19;;;28.71;35.46
28428;BME280;15662;49.128;8.520;2023-06-19T00:37:58;99911.81;;;28.67;35.80
28428;BME280;15662;49.128;8.520;2023-06-19T00:40:32;99920.16;;;28.66;35.61
28428;BME280;15662;49.128;8.520;2023-06-19T00:43:00;99929.19;;;28.58;35.85
28428;BME280;15662;49.128;8.520;2023-06-19T00:45:29;99933.78;;;28.58;35.88
28428;BME280;15662;49.128;8.520;2023-06-19T00:47:59;99921.47;;;28.45;36.22
28428;BME280;15662;49.128;8.520;2023-06-19T00:50:29;99927.25;;;28.42;36.24
28428;BME280;15662;49.128;8.520;2023-06-19T00:52:59;99941.63;;;28.52;36.17
28428;BME280;15662;49.128;8.520;2023-06-19T00:55:31;99955.25;;;28.52;36.03
28428;BME280;15662;49.128;8.520;2023-06-19T00:58:01;99946.66;;;28.39;36.39
28428;BME280;15662;49.128;8.520;2023-06-19T01:00:29;99963.38;;;28.44;36.39
28428;BME280;15662;49.128;8.520;2023-06-19T01:02:58;99969.50;;;28.38;36.26
28428;BME280;15662;49.128;8.520;2023-06-19T01:05:29;99986.56;;;28.22;36.58
28428;BME280;15662;49.128;8.520;2023-06-19T01:08:04;99996.50;;;28.32;36.53
28428;BME280;15662;49.128;8.520;2023-06-19T01:10:44;100001.66;;;28.35;36.67
28428;BME280;15662;49.128;8.520;2023-06-19T01:13:44;99998.53;;;28.29;36.74
28428;BME280;15662;49.128;8.520;2023-06-19T01:16:14;100008.53;;;28.21;36.71
28428;BME280;15662;49.128;8.520;2023-06-19T01:18:43;99997.97;;;28.18;37.00
28428;BME280;15662;49.128;8.520;2023-06-19T01:21:16;99989.28;;;28.14;37.05
28428;BME280;15662;49.128;8.520;2023-06-19T01:23:45;99991.63;;;28.09;37.15
28428;BME280;15662;49.128;8.520;2023-06-19T01:26:15;99999.31;;;28.14;37.09
28428;BME280;15662;49.128;8.520;2023-06-19T01:28:44;99997.06;;;28.09;37.39
28428;BME280;15662;49.128;8.520;2023-06-19T01:31:32;99978.97;;;28.00;37.35
28428;BME280;15662;49.128;8.520;2023-06-19T01:34:03;99974.47;;;27.91;37.69
28428;BME280;15662;49.128;8.520;2023-06-19T01:36:33;99988.09;;;27.91;37.76
28428;BME280;15662;49.128;8.520;2023-06-19T01:39:03;99990.81;;;27.91;38.01
28428;BME280;15662;49.128;8.520;2023-06-19T01:41:32;99985.19;;;27.84;38.25
28428;BME280;15662;49.128;8.520;2023-06-19T01:44:01;99971.19;;;27.79;38.19
28428;BME280;15662;49.128;8.520;2023-06-19T01:46:30;99973.19;;;27.77;38.23
28428;BME280;15662;49.128;8.520;2023-06-19T01:48:58;99980.59;;;27.85;38.33
28428;BME280;15662;49.128;8.520;2023-06-19T01:51:27;99986.72;;;27.87;38.69
28428;BME280;15662;49.128;8.520;2023-06-19T01:53:55;99976.28;;;27.82;38.74
28428;BME280;15662;49.128;8.520;2023-06-19T01:56:24;99970.16;;;27.80;38.94
28428;BME280;15662;49.128;8.520;2023-06-19T01:58:52;99993.47;;;27.83;39.01
28428;BME280;15662;49.128;8.520;2023-06-19T02:01:20;99983.63;;;27.82;39.35
28428;BME280;15662;49.128;8.520;2023-06-19T02:03:47;99993.66;;;27.81;39.78
28428;BME280;15662;49.128;8.520;2023-06-19T02:06:16;99983.06;;;27.78;39.94
28428;BME280;15662;49.128;8.520;2023-06-19T02:08:44;99988.13;;;27.73;40.42
28428;BME280;15662;49.128;8.520;2023-06-19T02:11:12;99990.56;;;27.76;40.90
28428;BME280;15662;49.128;8.520;2023-06-19T02:13:42;100001.75;;;27.73;41.10
28428;BME280;15662;49.128;8.520;2023-06-19T02:16:10;99998.63;;;27.68;41.50
28428;BME280;15662;49.128;8.520;2023-06-19T02:18:38;99994.00;;;27.60;41.77
28428;BME280;15662;49.128;8.520;2023-06-19T02:21:07;99992.03;;;27.52;42.18
28428;BME280;15662;49.128;8.520;2023-06-19T02:23:35;99975.97;;;27.41;42.45
28428;BME280;15662;49.128;8.520;2023-06-19T02:26:03;99992.69;;;27.46;42.65
28428;BME280;15662;49.128;8.520;2023-06-19T02:28:31;99988.56;;;27.42;42.87
28428;BME280;15662;49.128;8.520;2023-06-19T02:30:59;99984.75;;;27.35;43.06
28428;BME280;15662;49.128;8.520;2023-06-19T02:33:27;99979.31;;;27.35;43.21
28428;BME280;15662;49.128;8.520;2023-06-19T02:35:56;99974.72;;;27.36;43.45
28428;BME280;15662;49.128;8.520;2023-06-19T02:38:27;99988.50;;;27.34;43.49
28428;BME280;15662;49.128;8.520;2023-06-19T02:40:57;99973.78;;;27.27;43.38
28428;BME280;15662;49.128;8.520;2023-06-19T02:43:25;100010.56;;;27.31;43.63
28428;BME280;15662;49.128;8.520;2023-06-19T02:45:53;100018.50;;;27.24;44.05
28428;BME280;15662;49.128;8.520;2023-06-19T02:48:21;100033.56;;;27.19;44.35
28428;BME280;15662;49.128;8.520;2023-06-19T02:50:50;100030.91;;;27.09;44.57
28428;BME280;15662;49.128;8.520;2023-06-19T02:53:19;100035.63;;;27.07;44.80
28428;BME280;15662;49.128;8.520;2023-06-19T02:55:47;100044.41;;;27.01;44.83
28428;BME280;15662;49.128;8.520;2023-06-19T02:58:14;100051.16;;;26.97;45.11
28428;BME280;15662;49.128;8.520;2023-06-19T03:00:43;100042.44;;;26.93;45.10
28428;BME280;15662;49.128;8.520;2023-06-19T03:03:11;100050.22;;;26.88;45.04
28428;BME280;15662;49.128;8.520;2023-06-19T03:05:40;100045.94;;;26.86;45.01
28428;BME280;15662;49.128;8.520;2023-06-19T03:08:09;100040.78;;;26.83;44.94
28428;BME280;15662;49.128;8.520;2023-06-19T03:10:37;100051.50;;;26.84;45.12
28428;BME280;15662;49.128;8.520;2023-06-19T03:13:05;100030.13;;;26.71;45.11
28428;BME280;15662;49.128;8.520;2023-06-19T03:15:34;100045.94;;;26.86;45.26
28428;BME280;15662;49.128;8.520;2023-06-19T03:18:02;100045.09;;;26.85;45.05
28428;BME280;15662;49.128;8.520;2023-06-19T03:20:32;100044.28;;;26.75;45.09
28428;BME280;15662;49.128;8.520;2023-06-19T03:23:01;100055.41;;;26.82;45.13
28428;BME280;15662;49.128;8.520;2023-06-19T03:25:30;100065.66;;;26.88;45.55
28428;BME280;15662;49.128;8.520;2023-06-19T03:28:04;100066.56;;;26.79;45.35
28428;BME280;15662;49.128;8.520;2023-06-19T03:30:34;100056.03;;;26.75;45.37
28428;BME280;15662;49.128;8.520;2023-06-19T03:33:02;100067.59;;;26.78;45.15
28428;BME280;15662;49.128;8.520;2023-06-19T03:35:57;100069.22;;;26.70;45.48
28428;BME280;15662;49.128;8.520;2023-06-19T03:38:35;100088.47;;;26.77;45.42
28428;BME280;15662;49.128;8.520;2023-06-19T03:41:04;100083.06;;;26.77;45.36
28428;BME280;15662;49.128;8.520;2023-06-19T03:43:32;100082.34;;;26.75;45.21
28428;BME280;15662;49.128;8.520;2023-06-19T03:46:00;100087.06;;;26.73;45.12
28428;BME280;15662;49.128;8.520;2023-06-19T03:48:28;100091.66;;;26.72;45.28
28428;BME280;15662;49.128;8.520;2023-06-19T03:50:59;100091.66;;;26.72;45.23
28428;BME280;15662;49.128;8.520;2023-06-19T03:53:28;100085.53;;;26.70;45.39
28428;BME280;15662;49.128;8.520;2023-06-19T03:55:56;100084.50;;;26.71;45.39
28428;BME280;15662;49.128;8.520;2023-06-19T03:58:24;100086.78;;;26.76;45.34
28428;BME280;15662;49.128;8.520;2023-06-19T04:00:52;100082.34;;;26.75;45.27
28428;BME280;15662;49.128;8.520;2023-06-19T04:03:20;100080.50;;;26.75;45.32
28428;BME280;15662;49.128;8.520;2023-06-19T04:05:48;100080.31;;;26.77;45.16
28428;BME280;15662;49.128;8.520;2023-06-19T04:08:16;100082.34;;;26.75;45.45
28428;BME280;15662;49.128;8.520;2023-06-19T04:10:45;100085.19;;;26.73;45.27
28428;BME280;15662;49.128;8.520;2023-06-19T04:13:13;100086.06;;;26.74;45.20
28428;BME280;15662;49.128;8.520;2023-06-19T04:15:41;100079.53;;;26.67;45.41
28428;BME280;15662;49.128;8.520;2023-06-19T04:18:13;100077.81;;;26.66;45.27
28428;BME280;15662;49.128;8.520;2023-06-19T04:20:41;100088.53;;;26.67;45.25
28428;BME280;15662;49.128;8.520;2023-06-19T04:23:12;100078.78;;;26.28;45.31
28428;BME280;15662;49.128;8.520;2023-06-19T04:25:41;100105.75;;;26.48;45.33
28428;BME280;15662;49.128;8.520;2023-06-19T04:28:09;100099.19;;;26.51;45.18
28428;BME280;15662;49.128;8.520;2023-06-19T04:30:37;100104.31;;;26.54;45.65
28428;BME280;15662;49.128;8.520;2023-06-19T04:33:07;100103.38;;;26.45;45.51
28428;BME280;15662;49.128;8.520;2023-06-19T04:35:36;100103.03;;;26.48;45.50
28428;BME280;15662;49.128;8.520;2023-06-19T04:38:11;100098.91;;;26.44;45.64
28428;BME280;15662;49.128;8.520;2023-06-19T04:40:42;100106.50;;;26.51;45.59
28428;BME280;15662;49.128;8.520;2023-06-19T04:43:11;100104.47;;;26.53;45.60
28428;BME280;15662;49.128;8.520;2023-06-19T04:45:38;100113.31;;;26.55;45.56
28428;BME280;15662;49.128;8.520;2023-06-19T04:48:07;100096.75;;;26.48;45.51
28428;BME280;15662;49.128;8.520;2023-06-19T04:50:35;100109.91;;;26.53;45.48
28428;BME280;15662;49.128;8.520;2023-06-19T04:53:03;100112.47;;;26.54;45.66
28428;BME280;15662;49.128;8.520;2023-06-19T04:55:31;100122.16;;;26.66;45.75
28428;BME280;15662;49.128;8.520;2023-06-19T04:58:00;100127.84;;;26.73;45.62
28428;BME280;15662;49.128;8.520;2023-06-19T05:00:28;100121.13;;;26.77;45.40
28428;BME280;15662;49.128;8.520;2023-06-19T05:02:56;100119.94;;;26.80;45.72
28428;BME280;15662;49.128;8.520;2023-06-19T05:05:28;100108.38;;;26.78;45.64
28428;BME280;15662;49.128;8.520;2023-06-19T05:07:56;100112.78;;;26.79;45.52
28428;BME280;15662;49.128;8.520;2023-06-19T05:10:24;100124.81;;;26.86;45.62
28428;BME280;15662;49.128;8.520;2023-06-19T05:12:53;100123.78;;;26.87;45.52
28428;BME280;15662;49.128;8.520;2023-06-19T05:15:22;100128.22;;;26.88;45.62
28428;BME280;15662;49.128;8.520;2023-06-19T05:17:50;100129.06;;;26.88;45.61
28428;BME280;15662;49.128;8.520;2023-06-19T05:20:19;100129.78;;;26.90;45.49
28428;BME280;15662;49.128;8.520;2023-06-19T05:22:47;100128.63;;;26.93;45.66
28428;BME280;15662;49.128;8.520;2023-06-19T05:25:17;100111.16;;;26.95;45.59
28428;BME280;15662;49.128;8.520;2023-06-19T05:27:45;100121.03;;;26.96;45.73
28428;BME280;15662;49.128;8.520;2023-06-19T05:30:14;100113.88;;;26.95;45.61
28428;BME280;15662;49.128;8.520;2023-06-19T05:32:43;100134.56;;;27.06;45.66
28428;BME280;15662;49.128;8.520;2023-06-19T05:35:11;100127.25;;;27.07;45.97
28428;BME280;15662;49.128;8.520;2023-06-19T05:37:43;100124.41;;;27.08;45.74
28428;BME280;15662;49.128;8.520;2023-06-19T05:40:11;100122.69;;;27.07;45.63
28428;BME280;15662;49.128;8.520;2023-06-19T05:42:40;100130.72;;;27.09;45.76
28428;BME280;15662;49.128;8.520;2023-06-19T05:45:10;100127.56;;;27.04;45.73
28428;BME280;15662;49.128;8.520;2023-06-19T05:47:39;100147.88;;;27.09;45.58
28428;BME280;15662;49.128;8.520;2023-06-19T05:50:10;100141.72;;;27.07;45.64
28428;BME280;15662;49.128;8.520;2023-06-19T05:52:38;100148.78;;;27.10;45.67
28428;BME280;15662;49.128;8.520;2023-06-19T05:55:12;100148.78;;;27.10;46.00
28428;BME280;15662;49.128;8.520;2023-06-19T05:57:40;100134.00;;;27.02;45.88
28428;BME280;15662;49.128;8.520;2023-06-19T06:00:09;100146.75;;;27.12;45.76
28428;BME280;15662;49.128;8.520;2023-06-19T06:02:44;100151.16;;;27.13;45.72
28428;BME280;15662;49.128;8.520;2023-06-19T06:05:12;100137.44;;;27.14;45.93
28428;BME280;15662;49.128;8.520;2023-06-19T06:07:40;100139.69;;;27.19;45.99
28428;BME280;15662;49.128;8.520;2023-06-19T06:10:09;100138.22;;;27.24;46.08
28428;BME280;15662;49.128;8.520;2023-06-19T06:12:39;100143.91;;;27.31;46.32
28428;BME280;15662;49.128;8.520;2023-06-19T06:15:08;100136.69;;;27.40;46.32
28428;BME280;15662;49.128;8.520;2023-06-19T06:17:36;100137.78;;;27.47;46.50
28428;BME280;15662;49.128;8.520;2023-06-19T06:20:05;100146.06;;;27.55;46.60
28428;BME280;15662;49.128;8.520;2023-06-19T06:22:41;100146.13;;;27.63;46.66
28428;BME280;15662;49.128;8.520;2023-06-19T06:25:09;100146.78;;;27.75;46.60
28428;BME280;15662;49.128;8.520;2023-06-19T06:27:41;100131.84;;;27.79;46.30
28428;BME280;15662;49.128;8.520;2023-06-19T06:30:12;100120.53;;;27.92;46.55
28428;BME280;15662;49.128;8.520;2023-06-19T06:32:40;100144.03;;;28.11;46.41
28428;BME280;15662;49.128;8.520;2023-06-19T06:35:09;100145.81;;;28.20;46.28
28428;BME280;15662;49.128;8.520;2023-06-19T06:37:37;100134.66;;;28.31;46.30
28428;BME280;15662;49.128;8.520;2023-06-19T06:40:07;100149.50;;;28.54;45.68
28428;BME280;15662;49.128;8.520;2023-06-19T06:42:39;100152.28;;;28.63;45.41
28428;BME280;15662;49.128;8.520;2023-06-19T06:45:09;100158.97;;;28.68;44.92
28428;BME280;15662;49.128;8.520;2023-06-19T06:47:38;100164.97;;;28.72;44.96
28428;BME280;15662;49.128;8.520;2023-06-19T06:50:08;100154.56;;;28.75;44.53
28428;BME280;15662;49.128;8.520;2023-06-19T06:52:37;100170.63;;;28.78;44.41
28428;BME280;15662;49.128;8.520;2023-06-19T06:55:07;100178.44;;;28.82;44.17
28428;BME280;15662;49.128;8.520;2023-06-19T06:57:35;100170.66;;;28.87;44.38
28428;BME280;15662;49.128;8.520;2023-06-19T07:00:05;100184.59;;;29.01;44.15
28428;BME280;15662;49.128;8.520;2023-06-19T07:02:35;100178.97;;;29.03;43.93
28428;BME280;15662;49.128;8.520;2023-06-19T07:05:06;100187.38;;;29.18;43.90
28428;BME280;15662;49.128;8.520;2023-06-19T07:07:38;100189.63;;;29.22;43.72
28428;BME280;15662;49.128;8.520;2023-06-19T07:10:07;100207.09;;;29.38;43.70
28428;BME280;15662;49.128;8.520;2023-06-19T07:12:35;100210.53;;;29.48;43.26
28428;BME280;15662;49.128;8.520;2023-06-19T07:15:04;100209.91;;;29.54;43.08
28428;BME280;15662;49.128;8.520;2023-06-19T07:17:32;100210.47;;;29.66;43.02
28428;BME280;15662;49.128;8.520;2023-06-19T07:20:00;100212.88;;;29.77;43.11
28428;BME280;15662;49.128;8.520;2023-06-19T07:22:28;100214.06;;;29.83;42.92
28428;BME280;15662;49.128;8.520;2023-06-19T07:24:56;100209.13;;;29.94;42.67
28428;BME280;15662;49.128;8.520;2023-06-19T07:27:25;100220.59;;;30.06;42.43
28428;BME280;15662;49.128;8.520;2023-06-19T07:29:55;100224.72;;;30.10;42.32
28428;BME280;15662;49.128;8.520;2023-06-19T07:32:23;100226.09;;;30.14;42.21
28428;BME280;15662;49.128;8.520;2023-06-19T07:34:51;100232.09;;;30.18;41.65
28428;BME280;15662;49.128;8.520;2023-06-19T07:37:19;100224.56;;;30.28;41.79
28428;BME280;15662;49.128;8.520;2023-06-19T07:39:49;100231.09;;;30.35;41.25
28428;BME280;15662;49.128;8.520;2023-06-19T07:42:19;100229.69;;;30.39;41.13
28428;BME280;15662;49.128;8.520;2023-06-19T07:44:48;100228.69;;;30.40;41.18
28428;BME280;15662;49.128;8.520;2023-06-19T07:47:18;100237.06;;;30.47;41.11
28428;BME280;15662;49.128;8.520;2023-06-19T07:49:47;100246.81;;;30.49;40.85
28428;BME280;15662;49.128;8.520;2023-06-19T07:52:15;100235.31;;;30.54;41.14
28428;BME280;15662;49.128;8.520;2023-06-19T07:54:56;100240.47;;;30.65;41.02
28428;BME280;15662;49.128;8.520;2023-06-19T07:57:26;100245.75;;;30.67;41.02
28428;BME280;15662;49.128;8.520;2023-06-19T07:59:55;100244.72;;;30.68;41.15
28428;BME280;15662;49.128;8.520;2023-06-19T08:02:23;100251.41;;;30.73;41.10
28428;BME280;15662;49.128;8.520;2023-06-19T08:04:51;100247.16;;;30.79;40.96
28428;BME280;15662;49.128;8.520;2023-06-19T08:07:21;100244.56;;;30.86;40.84
28428;BME280;15662;49.128;8.520;2023-06-19T08:09:49;100255.31;;;30.95;40.78
28428;BME280;15662;49.128;8.520;2023-06-19T08:12:34;100249.16;;;31.01;40.85
28428;BME280;15662;49.128;8.520;2023-06-19T08:15:04;100252.41;;;30.97;40.84
28428;BME280;15662;49.128;8.520;2023-06-19T08:17:33;100244.72;;;30.92;40.97
28428;BME280;15662;49.128;8.520;2023-06-19T08:20:03;100253.25;;;30.97;41.33
28428;BME280;15662;49.128;8.520;2023-06-19T08:22:33;100254.81;;;30.92;41.12
28428;BME280;15662;49.128;8.520;2023-06-19T08:25:02;100256.88;;;30.81;41.30
28428;BME280;15662;49.128;8.520;2023-06-19T08:27:30;100264.56;;;30.70;41.03
28428;BME280;15662;49.128;8.520;2023-06-19T08:29:58;100261.31;;;30.58;41.27
28428;BME280;15662;49.128;8.520;2023-06-19T08:32:28;100267.81;;;30.41;41.25
28428;BME280;15662;49.128;8.520;2023-06-19T08:34:56;100266.28;;;30.30;41.50
28428;BME280;15662;49.128;8.520;2023-06-19T08:37:24;100265.22;;;30.15;41.88
28428;BME280;15662;49.128;8.520;2023-06-19T08:39:52;100265.22;;;30.15;41.53
28428;BME280;15662;49.128;8.520;2023-06-19T08:42:20;100257.00;;;30.15;42.04
28428;BME280;15662;49.128;8.520;2023-06-19T08:44:49;100265.06;;;30.24;42.16
28428;BME280;15662;49.128;8.520;2023-06-19T08:47:22;100270.00;;;30.29;41.79
28428;BME280;15662;49.128;8.520;2023-06-19T08:49:58;100278.06;;;30.30;42.06
28428;BME280;15662;49.128;8.520;2023-06-19T08:52:29;100268.31;;;30.20;42.16
28428;BME280;15662;49.128;8.520;2023-06-19T08:54:57;100282.69;;;30.30;41.75
28428;BME280;15662;49.128;8.520;2023-06-19T08:57:38;100270.72;;;30.31;41.84
28428;BME280;15662;49.128;8.520;2023-06-19T09:00:07;100268.16;;;30.21;42.29
28428;BME280;15662;49.128;8.520;2023-06-19T09:02:47;100275.50;;;30.21;41.81
28428;BME280;15662;49.128;8.520;2023-06-19T09:05:24;100289.28;;;30.11;42.21
28428;BME280;15662;49.128;8.520;2023-06-19T09:07:59;100293.38;;;30.07;41.77
28428;BME280;15662;49.128;8.520;2023-06-19T09:10:35;100284.09;;;30.00;42.14
28428;BME280;15662;49.128;8.520;2023-06-19T09:13:04;100293.03;;;30.02;41.82
28428;BME280;15662;49.128;8.520;2023-06-19T09:15:37;100287.22;;;30.05;42.09
28428;BME280;15662;49.128;8.520;2023-06-19T09:18:11;100286.03;;;30.07;41.63
28428;BME280;15662;49.128;8.520;2023-06-19T09:20:43;100279.03;;;30.05;42.01
28428;BME280;15662;49.128;8.520;2023-06-19T09:23:17;100278.88;;;30.15;41.76
28428;BME280;15662;49.128;8.520;2023-06-19T09:25:51;100273.41;;;30.15;41.69
28428;BME280;15662;49.128;8.520;2023-06-19T09:28:26;100261.47;;;30.16;41.83
28428;BME280;15662;49.128;8.520;2023-06-19T09:30:59;100267.28;;;30.13;41.81
28428;BME280;15662;49.128;8.520;2023-06-19T09:33:32;100251.41;;;30.16;41.64
28428;BME280;15662;49.128;8.520;2023-06-19T09:36:05;100263.19;;;30.17;41.68
28428;BME280;15662;49.128;8.520;2023-06-19T09:38:37;100269.50;;;30.17;41.42
28428;BME280;15662;49.128;8.520;2023-06-19T09:41:09;100264.56;;;30.21;41.60
28428;BME280;15662;49.128;8.520;2023-06-19T09:43:43;100255.16;;;30.31;41.36
28428;BME280;15662;49.128;8.520;2023-06-19T09:46:17;100262.00;;;30.36;41.58
28428;BME280;15662;49.128;8.520;2023-06-19T09:48:46;100258.59;;;30.25;41.82
28428;BME280;15662;49.128;8.520;2023-06-19T09:51:23;100259.44;;;30.50;41.50
28428;BME280;15662;49.128;8.520;2023-06-19T09:53:57;100251.91;;;30.61;41.11
28428;BME280;15662;49.128;8.520;2023-06-19T09:56:27;100243.19;;;30.65;41.11
28428;BME280;15662;49.128;8.520;2023-06-19T09:59:00;100238.59;;;30.74;40.90
28428;BME280;15662;49.128;8.520;2023-06-19T10:01:31;100246.63;;;30.75;41.09
28428;BME280;15662;49.128;8.520;2023-06-19T10:04:07;100236.88;;;30.81;40.63
28428;BME280;15662;49.128;8.520;2023-06-19T10:06:46;100242.69;;;30.86;40.58
28428;BME280;15662;49.128;8.520;2023-06-19T10:09:16;100242.34;;;30.89;40.53
28428;BME280;15662;49.128;8.520;2023-06-19T10:11:51;100250.38;;;30.99;40.37
28428;BME280;15662;49.128;8.520;2023-06-19T10:14:22;100239.03;;;31.10;40.51
28428;BME280;15662;49.128;8.520;2023-06-19T10:16:50;100241.72;;;31.18;40.21
28428;BME280;15662;49.128;8.520;2023-06-19T10:19:21;100244.47;;;31.26;39.97
28428;BME280;15662;49.128;8.520;2023-06-19T10:21:54;100243.75;;;31.32;39.78
28428;BME280;15662;49.128;8.520;2023-06-19T10:24:25;100244.97;;;31.38;39.98
28428;BME280;15662;49.128;8.520;2023-06-19T10:27:00;100236.63;;;31.23;40.30
28428;BME280;15662;49.128;8.520;2023-06-19T10:29:41;100223.72;;;31.40;39.89
28428;BME280;15662;49.128;8.520;2023-06-19T10:32:15;100224.91;;;31.46;39.57
28428;BME280;15662;49.128;8.520;2023-06-19T10:34:47;100225.72;;;31.54;39.57
28428;BME280;15662;49.128;8.520;2023-06-19T10:37:16;100236.81;;;31.61;39.51
28428;BME280;15662;49.128;8.520;2023-06-19T10:39:47;100222.94;;;31.63;39.57
28428;BME280;15662;49.128;8.520;2023-06-19T10:42:15;100219.94;;;31.72;39.27
28428;BME280;15662;49.128;8.520;2023-06-19T10:44:43;100215.81;;;31.76;38.88
28428;BME280;15662;49.128;8.520;2023-06-19T10:47:12;100215.66;;;31.78;38.91
28428;BME280;15662;49.128;8.520;2023-06-19T10:49:39;100218.75;;;31.83;38.90
28428;BME280;15662;49.128;8.520;2023-06-19T10:52:09;100206.06;;;31.82;38.88
28428;BME280;15662;49.128;8.520;2023-06-19T10:54:39;100211.69;;;31.89;38.93
28428;BME280;15662;49.128;8.520;2023-06-19T10:57:07;100206.69;;;31.92;39.00
28428;BME280;15662;49.128;8.520;2023-06-19T10:59:35;100196.19;;;31.96;38.80
28428;BME280;15662;49.128;8.520;2023-06-19T11:02:07;100197.72;;;31.98;38.71
28428;BME280;15662;49.128;8.520;2023-06-19T11:04:39;100198.69;;;32.05;38.31
28428;BME280;15662;49.128;8.520;2023-06-19T11:07:09;100200.91;;;32.10;38.27
28428;BME280;15662;49.128;8.520;2023-06-19T11:09:43;100190.41;;;32.14;38.22
28428;BME280;15662;49.128;8.520;2023-06-19T11:12:12;100193.47;;;32.19;38.26
28428;BME280;15662;49.128;8.520;2023-06-19T11:14:48;100179.75;;;32.19;38.05
28428;BME280;15662;49.128;8.520;2023-06-19T11:17:17;100179.06;;;32.17;37.96
28428;BME280;15662;49.128;8.520;2023-06-19T11:19:49;100185.84;;;32.29;38.12
28428;BME280;15662;49.128;8.520;2023-06-19T11:22:17;100172.41;;;32.34;37.77
28428;BME280;15662;49.128;8.520;2023-06-19T11:24:46;100185.25;;;32.42;37.90
28428;BME280;15662;49.128;8.520;2023-06-19T11:27:22;100176.06;;;32.49;37.25
28428;BME280;15662;49.128;8.520;2023-06-19T11:29:56;100172.28;;;32.50;37.27
28428;BME280;15662;49.128;8.520;2023-06-19T11:32:38;100173.41;;;32.56;37.15
28428;BME280;15662;49.128;8.520;2023-06-19T11:35:12;100174.59;;;32.61;37.54
28428;BME280;15662;49.128;8.520;2023-06-19T11:37:42;100177.13;;;32.63;37.17
28428;BME280;15662;49.128;8.520;2023-06-19T11:40:10;100176.38;;;32.69;37.19
28428;BME280;15662;49.128;8.520;2023-06-19T11:42:49;100166.25;;;32.70;36.95
28428;BME280;15662;49.128;8.520;2023-06-19T11:45:19;100176.47;;;32.76;36.46
28428;BME280;15662;49.128;8.520;2023-06-19T11:47:49;100169.41;;;32.81;36.61
28428;BME280;15662;49.128;8.520;2023-06-19T11:50:17;100162.03;;;32.82;36.58
28428;BME280;15662;49.128;8.520;2023-06-19T11:52:47;100155.47;;;32.83;36.73
28428;BME280;15662;49.128;8.520;2023-06-19T11:55:17;100167.44;;;32.90;36.43
28428;BME280;15662;49.128;8.520;2023-06-19T11:57:45;100164.50;;;32.92;36.38
28428;BME280;15662;49.128;8.520;2023-06-19T12:00:17;100161.56;;;32.93;36.38
28428;BME280;15662;49.128;8.520;2023-06-19T12:02:45;100160.34;;;32.96;36.43
28428;BME280;15662;49.128;8.520;2023-06-19T12:05:18;100148.97;;;32.99;35.89
28428;BME280;15662;49.128;8.520;2023-06-19T12:07:49;100162.59;;;33.07;35.88
28428;BME280;15662;49.128;8.520;2023-06-19T12:10:21;100153.81;;;33.11;36.24
28428;BME280;15662;49.128;8.520;2023-06-19T12:12:50;100154.34;;;33.22;35.81
28428;BME280;15662;49.128;8.520;2023-06-19T12:15:20;100153.66;;;33.34;36.11
28428;BME280;15662;49.128;8.520;2023-06-19T12:17:48;100158.88;;;33.44;35.87
28428;BME280;15662;49.128;8.520;2023-06-19T12:20:19;100157.91;;;33.52;35.47
28428;BME280;15662;49.128;8.520;2023-06-19T12:22:47;100155.66;;;33.55;35.43
28428;BME280;15662;49.128;8.520;2023-06-19T12:25:15;100149.38;;;33.61;35.70
28428;BME280;15662;49.128;8.520;2023-06-19T12:27:44;100140.06;;;33.62;35.06
28428;BME280;15662;49.128;8.520;2023-06-19T12:30:12;100146.69;;;33.68;35.26
28428;BME280;15662;49.128;8.520;2023-06-19T12:32:41;100135.31;;;33.71;35.13
28428;BME280;15662;49.128;8.520;2023-06-19T12:35:09;100138.53;;;33.75;34.76
28428;BME280;15662;49.128;8.520;2023-06-19T12:37:37;100127.91;;;33.72;34.69
28428;BME280;15662;49.128;8.520;2023-06-19T12:40:06;100128.16;;;33.77;34.58
28428;BME280;15662;49.128;8.520;2023-06-19T12:42:38;100120.81;;;33.84;34.54
28428;BME280;15662;49.128;8.520;2023-06-19T12:45:07;100121.50;;;33.86;34.46
28428;BME280;15662;49.128;8.520;2023-06-19T12:47:36;100125.34;;;33.92;34.06
28428;BME280;15662;49.128;8.520;2023-06-19T12:50:05;100123.66;;;33.91;33.65
28428;BME280;15662;49.128;8.520;2023-06-19T12:52:34;100112.81;;;33.89;33.73
28428;BME280;15662;49.128;8.520;2023-06-19T12:55:02;100114.09;;;33.86;33.92
28428;BME280;15662;49.128;8.520;2023-06-19T12:57:34;100120.22;;;33.88;33.81
28428;BME280;15662;49.128;8.520;2023-06-19T13:00:03;100117.09;;;33.92;33.60
28428;BME280;15662;49.128;8.520;2023-06-19T13:02:36;100117.09;;;33.92;33.65
28428;BME280;15662;49.128;8.520;2023-06-19T13:05:06;100109.34;;;33.95;33.29
28428;BME280;15662;49.128;8.520;2023-06-19T13:07:34;100104.28;;;33.99;33.28